x

West Sea Otter (46204) Wave Buoy

3:00 - Sat 1st Aug 2015 All times are PDT. -7 hours from GMT.

  • Sig Wave height 3.3ft
  • Peak Period 15s
  • Wind
    11mph, 13mph gusts
  • Sea Temp 62°f
  • Ar Temp 61°f
  • Sea Pressure 1020.3mb
  • West Sea Otter
  • West Sea Otter

More Historic Weather Station data

Upgrade to MSW Pro to gain access to the past 30 days of data for over 8000 Wavebouys and Weather Stations around the globe.

Join Pro

Comparision Forecast

View Surf forecast
   
Sáb 08/01 3:00 3.5ft 15s 11 13 mph 1020.3mb 62f 61f
2:00 4ft 8s 9 11 mph 1020.5mb 63f 62f
1:00 4ft 7s 9 13 mph 1020.6mb 63f 62f
12:00 3.5ft 15s 9 11 mph 1020.7mb 63f 62f
Sex 07/31 11:00 3.5ft 15s 7 9 mph 1020.9mb 63f 62f
9:00 3.5ft 14s 9 11 mph 1021.1mb 63f 62f
8:00 3.5ft 15s 9 11 mph 1021.4mb 63f 63f
7:00 3.5ft 15s 9 11 mph 1021.5mb 64f 63f
6:00 3.5ft 15s 9 11 mph 1021.8mb 64f 63f
5:00 3.5ft 8s 9 11 mph 1022mb 64f 63f
3:00 3ft 15s 9
mph
1022.7mb 64f 63f
2:00 3.5ft 16s 7 9 mph 1022.8mb 64f 63f
1:00 3.5ft 16s 7 9 mph 1022.7mb 64f 63f
12:00 3.5ft 15s 7
mph
1022.7mb 63f 62f
10:00 3.5ft 16s 7
mph
1022.6mb 62f 62f
8:00 3ft 16s 9
mph
1022.5mb 62f 62f
3:00 3ft 15s 11 13 mph 1021.7mb 62f 61f
2:00 3ft 15s 11 13 mph 1021.7mb 62f 61f
1:00 3ft 16s 11 13 mph 1021.7mb 62f 61f
Qui 07/30 10:00 3.5ft 16s 13 18 mph 1021.9mb 62f 62f
8:00 3.5ft 15s 13 18 mph 1021.9mb 62f 62f
7:00 3.5ft 16s 13 16 mph 1022.2mb 63f 62f
5:00 3ft 16s 13 16 mph 1022.9mb 63f 61f
4:00 3.5ft 16s 13 16 mph 1023.2mb 63f 61f
3:00 3.5ft 16s 11 13 mph 1023.4mb 63f 61f
1:00 3.5ft 16s 11 13 mph 1023.4mb 62f 61f
12:00 3.5ft 16s 11 13 mph 1023.4mb 62f 61f
11:00 3.5ft 16s 9 11 mph 1023.2mb 62f 61f
10:00 4ft 15s 9 11 mph 1023.3mb 62f 60f
9:00 3.5ft 8s 9 11 mph 1023.2mb 62f 60f
5:00 4ft 16s 9 11 mph 1023mb 62f 60f
4:00 4ft 17s 11 13 mph 1023.1mb 62f 60f
3:00 3.5ft 17s 11 13 mph 1023.1mb 62f 60f
2:00 3.5ft 16s 11 13 mph 1023.3mb 61f 60f
12:00 4ft 17s 11 13 mph 1023mb 61f 61f
Qua 07/29 10:00 4ft 8s 11
mph
1023.4mb 62f 61f
9:00 3.5ft 17s 9 11 mph 1023.4mb 63f 61f
8:00 4ft 16s 9 11 mph 1023.8mb 64f 62f
7:00 4ft 16s 9
mph
1024.1mb 64f 62f
6:00 4.5ft 16s 7 9 mph 1024.6mb 64f 62f
5:00 4.5ft 16s 4 7 mph 1025mb 64f 62f
4:00 4.5ft 17s 7 9 mph 1025.1mb 64f 62f
3:00 4.5ft 17s 7
mph
1025.5mb 64f 62f
2:00 4.5ft 16s 2 4 mph 1025.7mb 64f 62f
1:00 4.5ft 9s 2 4 mph 1025.3mb 63f 62f
10:00 5ft 9s 4
mph
1024.9mb 62f 61f
8:00 5ft 10s 4
mph
1024.9mb 61f 60f
7:00 5ft 10s 2 4 mph 1024.6mb 61f 60f
6:00 4.5ft 10s 4 7 mph 1024.6mb 61f 60f
2:00 5ft 10s 4 7 mph 1024.3mb 61f 60f
1:00 5.5ft 10s 9 13 mph 1024.4mb 61f 60f
12:00 6ft 10s 7 9 mph 1024.3mb 61f 60f
Ter 07/28 7:00 6ft 9s 13 16 mph 1024.8mb 61f 60f
6:00 6ft 10s 13 20 mph 1025mb 62f 60f
5:00 7ft 10s 9 11 mph 1025mb 62f 60f
3:00 6.5ft 10s 11 13 mph 1025mb 61f 61f
1:00 6ft 10s 13
mph
1024.8mb 61f 61f